sensor_id;sensor_type;location;lat;lon;timestamp;temperature;humidity
17831;DHT22;9040;51.332;12.406;2022-08-19T00:00:10;21.00;99.90
17831;DHT22;9040;51.332;12.406;2022-08-19T00:02:41;21.00;99.90
17831;DHT22;9040;51.332;12.406;2022-08-19T00:05:10;21.00;99.90
17831;DHT22;9040;51.332;12.406;2022-08-19T00:07:37;21.00;99.90
17831;DHT22;9040;51.332;12.406;2022-08-19T00:10:05;21.00;99.90
17831;DHT22;9040;51.332;12.406;2022-08-19T00:12:34;21.00;99.90
17831;DHT22;9040;51.332;12.406;2022-08-19T00:15:03;21.00;99.90
17831;DHT22;9040;51.332;12.406;2022-08-19T00:17:30;21.00;99.90
17831;DHT22;9040;51.332;12.406;2022-08-19T00:19:57;21.00;99.90
17831;DHT22;9040;51.332;12.406;2022-08-19T00:22:24;21.10;99.90
17831;DHT22;9040;51.332;12.406;2022-08-19T00:24:53;21.10;99.90
17831;DHT22;9040;51.332;12.406;2022-08-19T00:27:20;21.00;99.90
17831;DHT22;9040;51.332;12.406;2022-08-19T00:29:49;21.10;99.90
17831;DHT22;9040;51.332;12.406;2022-08-19T00:32:16;21.00;99.90
17831;DHT22;9040;51.332;12.406;2022-08-19T00:34:43;21.00;99.90
17831;DHT22;9040;51.332;12.406;2022-08-19T00:37:10;20.90;99.90
17831;DHT22;9040;51.332;12.406;2022-08-19T00:39:37;20.90;99.90
17831;DHT22;9040;51.332;12.406;2022-08-19T00:42:04;20.90;99.90
17831;DHT22;9040;51.332;12.406;2022-08-19T00:44:32;20.90;99.90
17831;DHT22;9040;51.332;12.406;2022-08-19T00:47:00;20.90;99.90
17831;DHT22;9040;51.332;12.406;2022-08-19T00:49:31;20.80;99.90
17831;DHT22;9040;51.332;12.406;2022-08-19T00:52:01;20.80;99.90
17831;DHT22;9040;51.332;12.406;2022-08-19T00:54:30;20.70;99.90
17831;DHT22;9040;51.332;12.406;2022-08-19T00:56:58;20.70;99.90
17831;DHT22;9040;51.332;12.406;2022-08-19T00:59:28;20.70;99.90
17831;DHT22;9040;51.332;12.406;2022-08-19T01:01:55;20.70;99.90
17831;DHT22;9040;51.332;12.406;2022-08-19T01:04:23;20.70;99.90
17831;DHT22;9040;51.332;12.406;2022-08-19T01:06:50;20.70;99.90
17831;DHT22;9040;51.332;12.406;2022-08-19T01:09:17;20.60;99.90
17831;DHT22;9040;51.332;12.406;2022-08-19T01:11:44;20.60;99.90
17831;DHT22;9040;51.332;12.406;2022-08-19T01:14:12;20.60;99.90
17831;DHT22;9040;51.332;12.406;2022-08-19T01:16:40;20.60;99.90
17831;DHT22;9040;51.332;12.406;2022-08-19T01:19:15;20.50;99.90
17831;DHT22;9040;51.332;12.406;2022-08-19T01:21:50;20.60;99.90
17831;DHT22;9040;51.332;12.406;2022-08-19T01:24:20;20.60;99.90
17831;DHT22;9040;51.332;12.406;2022-08-19T01:26:47;20.60;99.90
17831;DHT22;9040;51.332;12.406;2022-08-19T01:29:14;20.60;99.90
17831;DHT22;9040;51.332;12.406;2022-08-19T01:31:41;20.60;99.90
17831;DHT22;9040;51.332;12.406;2022-08-19T01:34:09;20.60;99.90
17831;DHT22;9040;51.332;12.406;2022-08-19T01:36:40;20.60;99.90
17831;DHT22;9040;51.332;12.406;2022-08-19T01:39:10;20.60;99.90
17831;DHT22;9040;51.332;12.406;2022-08-19T01:41:39;20.60;99.90
17831;DHT22;9040;51.332;12.406;2022-08-19T01:44:06;20.60;99.90
17831;DHT22;9040;51.332;12.406;2022-08-19T01:46:34;20.50;99.90
17831;DHT22;9040;51.332;12.406;2022-08-19T01:49:03;20.50;99.90
17831;DHT22;9040;51.332;12.406;2022-08-19T01:51:30;20.50;99.90
17831;DHT22;9040;51.332;12.406;2022-08-19T01:53:57;20.60;99.90
17831;DHT22;9040;51.332;12.406;2022-08-19T01:56:24;20.60;99.90
17831;DHT22;9040;51.332;12.406;2022-08-19T01:58:55;20.60;99.90
17831;DHT22;9040;51.332;12.406;2022-08-19T02:01:22;20.50;99.90
17831;DHT22;9040;51.332;12.406;2022-08-19T02:03:49;20.60;99.90
17831;DHT22;9040;51.332;12.406;2022-08-19T02:06:17;20.50;99.90
17831;DHT22;9040;51.332;12.406;2022-08-19T02:08:44;20.50;99.90
17831;DHT22;9040;51.332;12.406;2022-08-19T02:11:20;20.50;99.90
17831;DHT22;9040;51.332;12.406;2022-08-19T02:13:48;20.50;99.90
17831;DHT22;9040;51.332;12.406;2022-08-19T02:16:17;20.40;99.90
17831;DHT22;9040;51.332;12.406;2022-08-19T02:18:45;20.50;99.90
17831;DHT22;9040;51.332;12.406;2022-08-19T02:21:14;20.50;99.90
17831;DHT22;9040;51.332;12.406;2022-08-19T02:23:41;20.50;99.90
17831;DHT22;9040;51.332;12.406;2022-08-19T02:26:08;20.50;99.90
17831;DHT22;9040;51.332;12.406;2022-08-19T02:28:35;20.60;99.90
17831;DHT22;9040;51.332;12.406;2022-08-19T02:31:07;20.60;99.90
17831;DHT22;9040;51.332;12.406;2022-08-19T02:33:36;20.60;99.90
17831;DHT22;9040;51.332;12.406;2022-08-19T02:36:04;20.70;99.90
17831;DHT22;9040;51.332;12.406;2022-08-19T02:38:31;20.80;99.90
17831;DHT22;9040;51.332;12.406;2022-08-19T02:41:01;20.80;99.90
17831;DHT22;9040;51.332;12.406;2022-08-19T02:43:30;20.80;99.90
17831;DHT22;9040;51.332;12.406;2022-08-19T02:45:57;20.90;99.90
17831;DHT22;9040;51.332;12.406;2022-08-19T02:48:25;20.90;99.90
17831;DHT22;9040;51.332;12.406;2022-08-19T02:50:53;20.90;99.90
17831;DHT22;9040;51.332;12.406;2022-08-19T02:53:22;21.00;99.90
17831;DHT22;9040;51.332;12.406;2022-08-19T02:55:50;20.90;99.90
17831;DHT22;9040;51.332;12.406;2022-08-19T02:58:18;20.90;99.90
17831;DHT22;9040;51.332;12.406;2022-08-19T03:00:48;20.90;99.90
17831;DHT22;9040;51.332;12.406;2022-08-19T03:03:16;21.00;99.90
17831;DHT22;9040;51.332;12.406;2022-08-19T03:05:43;21.00;99.90
17831;DHT22;9040;51.332;12.406;2022-08-19T03:08:12;21.00;99.90
17831;DHT22;9040;51.332;12.406;2022-08-19T03:10:42;20.90;99.90
17831;DHT22;9040;51.332;12.406;2022-08-19T03:13:11;20.90;99.90
17831;DHT22;9040;51.332;12.406;2022-08-19T03:15:42;20.90;99.90
17831;DHT22;9040;51.332;12.406;2022-08-19T03:18:10;21.00;99.90
17831;DHT22;9040;51.332;12.406;2022-08-19T03:20:41;21.10;99.90
17831;DHT22;9040;51.332;12.406;2022-08-19T03:23:08;21.20;99.90
17831;DHT22;9040;51.332;12.406;2022-08-19T03:25:39;21.20;99.90
17831;DHT22;9040;51.332;12.406;2022-08-19T03:28:09;21.30;99.90
17831;DHT22;9040;51.332;12.406;2022-08-19T03:30:36;21.20;99.90
17831;DHT22;9040;51.332;12.406;2022-08-19T03:33:03;21.20;99.90
17831;DHT22;9040;51.332;12.406;2022-08-19T03:35:29;21.10;99.90
17831;DHT22;9040;51.332;12.406;2022-08-19T03:37:58;21.00;99.90
17831;DHT22;9040;51.332;12.406;2022-08-19T03:40:25;21.00;99.90
17831;DHT22;9040;51.332;12.406;2022-08-19T03:42:53;21.00;99.90
17831;DHT22;9040;51.332;12.406;2022-08-19T03:45:20;21.00;99.90
17831;DHT22;9040;51.332;12.406;2022-08-19T03:47:47;20.90;99.90
17831;DHT22;9040;51.332;12.406;2022-08-19T03:50:14;20.90;99.90
17831;DHT22;9040;51.332;12.406;2022-08-19T03:52:41;20.80;99.90
17831;DHT22;9040;51.332;12.406;2022-08-19T03:55:08;20.80;99.90
17831;DHT22;9040;51.332;12.406;2022-08-19T03:57:35;20.70;99.90
17831;DHT22;9040;51.332;12.406;2022-08-19T04:00:04;20.70;99.90
17831;DHT22;9040;51.332;12.406;2022-08-19T04:02:33;20.70;99.90
17831;DHT22;9040;51.332;12.406;2022-08-19T04:04:59;20.70;99.90
17831;DHT22;9040;51.332;12.406;2022-08-19T04:07:26;20.70;99.90
17831;DHT22;9040;51.332;12.406;2022-08-19T04:09:53;20.70;99.90
17831;DHT22;9040;51.332;12.406;2022-08-19T04:12:28;20.70;99.90
17831;DHT22;9040;51.332;12.406;2022-08-19T04:14:55;20.70;99.90
17831;DHT22;9040;51.332;12.406;2022-08-19T04:17:23;20.70;99.90
17831;DHT22;9040;51.332;12.406;2022-08-19T04:19:50;20.60;99.90
17831;DHT22;9040;51.332;12.406;2022-08-19T04:22:17;20.70;99.90
17831;DHT22;9040;51.332;12.406;2022-08-19T04:24:45;20.70;99.90
17831;DHT22;9040;51.332;12.406;2022-08-19T04:27:11;20.70;99.90
17831;DHT22;9040;51.332;12.406;2022-08-19T04:29:39;20.70;99.90
17831;DHT22;9040;51.332;12.406;2022-08-19T04:32:06;20.70;99.90
17831;DHT22;9040;51.332;12.406;2022-08-19T04:34:35;20.70;99.90
17831;DHT22;9040;51.332;12.406;2022-08-19T04:37:05;20.70;99.90
17831;DHT22;9040;51.332;12.406;2022-08-19T04:39:38;20.70;99.90
17831;DHT22;9040;51.332;12.406;2022-08-19T04:42:23;20.60;99.90
17831;DHT22;9040;51.332;12.406;2022-08-19T04:45:06;20.60;99.90
17831;DHT22;9040;51.332;12.406;2022-08-19T04:47:35;20.60;99.90
17831;DHT22;9040;51.332;12.406;2022-08-19T04:50:05;20.60;99.90
17831;DHT22;9040;51.332;12.406;2022-08-19T04:52:32;20.60;99.90
17831;DHT22;9040;51.332;12.406;2022-08-19T04:54:59;20.60;99.90
17831;DHT22;9040;51.332;12.406;2022-08-19T04:57:26;20.70;99.90
17831;DHT22;9040;51.332;12.406;2022-08-19T04:59:54;20.70;99.90
17831;DHT22;9040;51.332;12.406;2022-08-19T05:02:22;20.80;99.90
17831;DHT22;9040;51.332;12.406;2022-08-19T05:04:51;20.80;99.90
17831;DHT22;9040;51.332;12.406;2022-08-19T05:07:19;20.80;99.90
17831;DHT22;9040;51.332;12.406;2022-08-19T05:09:46;20.80;99.90
17831;DHT22;9040;51.332;12.406;2022-08-19T05:12:12;20.80;99.90
17831;DHT22;9040;51.332;12.406;2022-08-19T05:14:39;20.80;99.90
17831;DHT22;9040;51.332;12.406;2022-08-19T05:17:06;20.70;99.90
17831;DHT22;9040;51.332;12.406;2022-08-19T05:19:33;20.80;99.90
17831;DHT22;9040;51.332;12.406;2022-08-19T05:22:19;20.80;99.90
17831;DHT22;9040;51.332;12.406;2022-08-19T05:25:06;20.80;99.90
17831;DHT22;9040;51.332;12.406;2022-08-19T05:27:34;20.80;99.90
17831;DHT22;9040;51.332;12.406;2022-08-19T05:30:01;20.80;99.90
17831;DHT22;9040;51.332;12.406;2022-08-19T05:32:28;20.80;99.90
17831;DHT22;9040;51.332;12.406;2022-08-19T05:34:55;20.80;99.90
17831;DHT22;9040;51.332;12.406;2022-08-19T05:37:23;20.80;99.90
17831;DHT22;9040;51.332;12.406;2022-08-19T05:39:52;20.80;99.90
17831;DHT22;9040;51.332;12.406;2022-08-19T05:42:20;20.80;99.90
17831;DHT22;9040;51.332;12.406;2022-08-19T05:44:48;20.80;99.90
17831;DHT22;9040;51.332;12.406;2022-08-19T05:47:16;20.80;99.90
17831;DHT22;9040;51.332;12.406;2022-08-19T05:49:45;20.80;99.90
17831;DHT22;9040;51.332;12.406;2022-08-19T05:52:14;20.80;99.90
17831;DHT22;9040;51.332;12.406;2022-08-19T05:54:43;20.80;99.90
17831;DHT22;9040;51.332;12.406;2022-08-19T05:57:14;20.80;99.90
17831;DHT22;9040;51.332;12.406;2022-08-19T05:59:41;20.70;99.90
17831;DHT22;9040;51.332;12.406;2022-08-19T06:02:07;20.80;99.90
17831;DHT22;9040;51.332;12.406;2022-08-19T06:04:34;20.80;99.90
17831;DHT22;9040;51.332;12.406;2022-08-19T06:07:01;20.80;99.90
17831;DHT22;9040;51.332;12.406;2022-08-19T06:09:29;20.80;99.90
17831;DHT22;9040;51.332;12.406;2022-08-19T06:11:58;20.80;99.90
17831;DHT22;9040;51.332;12.406;2022-08-19T06:14:30;20.80;99.90
17831;DHT22;9040;51.332;12.406;2022-08-19T06:16:58;20.80;99.90
17831;DHT22;9040;51.332;12.406;2022-08-19T06:19:27;20.80;99.90
17831;DHT22;9040;51.332;12.406;2022-08-19T06:21:56;20.80;99.90
17831;DHT22;9040;51.332;12.406;2022-08-19T06:24:25;20.80;99.90
17831;DHT22;9040;51.332;12.406;2022-08-19T06:26:54;20.90;99.90
17831;DHT22;9040;51.332;12.406;2022-08-19T06:29:24;20.90;99.90
17831;DHT22;9040;51.332;12.406;2022-08-19T06:31:55;20.90;99.90
17831;DHT22;9040;51.332;12.406;2022-08-19T06:34:22;21.00;99.90
17831;DHT22;9040;51.332;12.406;2022-08-19T06:36:51;21.00;99.90
17831;DHT22;9040;51.332;12.406;2022-08-19T06:39:21;21.00;99.90
17831;DHT22;9040;51.332;12.406;2022-08-19T06:41:50;20.90;99.90
17831;DHT22;9040;51.332;12.406;2022-08-19T06:44:18;20.80;99.90
17831;DHT22;9040;51.332;12.406;2022-08-19T06:46:47;20.80;99.90
17831;DHT22;9040;51.332;12.406;2022-08-19T06:49:15;20.80;99.90
17831;DHT22;9040;51.332;12.406;2022-08-19T06:51:43;20.90;99.90
17831;DHT22;9040;51.332;12.406;2022-08-19T06:54:14;20.90;99.90
17831;DHT22;9040;51.332;12.406;2022-08-19T06:56:42;20.90;99.90
17831;DHT22;9040;51.332;12.406;2022-08-19T06:59:13;20.90;99.90
17831;DHT22;9040;51.332;12.406;2022-08-19T07:01:42;20.90;99.90
17831;DHT22;9040;51.332;12.406;2022-08-19T07:04:14;20.90;99.90
17831;DHT22;9040;51.332;12.406;2022-08-19T07:06:42;20.80;99.90
17831;DHT22;9040;51.332;12.406;2022-08-19T07:09:11;20.80;99.90
17831;DHT22;9040;51.332;12.406;2022-08-19T07:11:38;20.80;99.90
17831;DHT22;9040;51.332;12.406;2022-08-19T07:14:05;20.80;99.90
17831;DHT22;9040;51.332;12.406;2022-08-19T07:16:32;20.80;99.90
17831;DHT22;9040;51.332;12.406;2022-08-19T07:18:59;20.70;99.90
17831;DHT22;9040;51.332;12.406;2022-08-19T07:21:28;20.60;99.90
17831;DHT22;9040;51.332;12.406;2022-08-19T07:23:56;20.60;99.90
17831;DHT22;9040;51.332;12.406;2022-08-19T07:26:26;20.60;99.90
17831;DHT22;9040;51.332;12.406;2022-08-19T07:28:53;20.60;99.90
17831;DHT22;9040;51.332;12.406;2022-08-19T07:31:22;20.50;99.90
17831;DHT22;9040;51.332;12.406;2022-08-19T07:33:51;20.50;99.90
17831;DHT22;9040;51.332;12.406;2022-08-19T07:36:22;20.50;99.90
17831;DHT22;9040;51.332;12.406;2022-08-19T07:38:51;20.50;99.90
17831;DHT22;9040;51.332;12.406;2022-08-19T07:41:21;20.50;99.90
17831;DHT22;9040;51.332;12.406;2022-08-19T07:43:49;20.60;99.90
17831;DHT22;9040;51.332;12.406;2022-08-19T07:46:17;20.60;99.90
17831;DHT22;9040;51.332;12.406;2022-08-19T07:48:46;20.60;99.90
17831;DHT22;9040;51.332;12.406;2022-08-19T07:51:16;20.60;99.90
17831;DHT22;9040;51.332;12.406;2022-08-19T07:53:44;20.60;99.90
17831;DHT22;9040;51.332;12.406;2022-08-19T07:56:13;20.60;99.90
17831;DHT22;9040;51.332;12.406;2022-08-19T07:58:43;20.60;99.90
17831;DHT22;9040;51.332;12.406;2022-08-19T08:01:12;20.60;99.90
17831;DHT22;9040;51.332;12.406;2022-08-19T08:03:40;20.60;99.90
17831;DHT22;9040;51.332;12.406;2022-08-19T08:06:24;20.70;99.90
17831;DHT22;9040;51.332;12.406;2022-08-19T08:09:09;20.70;99.90
17831;DHT22;9040;51.332;12.406;2022-08-19T08:11:50;20.70;99.90
17831;DHT22;9040;51.332;12.406;2022-08-19T08:14:20;20.80;99.90
17831;DHT22;9040;51.332;12.406;2022-08-19T08:16:48;20.70;99.90
17831;DHT22;9040;51.332;12.406;2022-08-19T08:19:18;20.70;99.90
17831;DHT22;9040;51.332;12.406;2022-08-19T08:21:46;20.70;99.90
17831;DHT22;9040;51.332;12.406;2022-08-19T08:24:13;20.80;99.90
17831;DHT22;9040;51.332;12.406;2022-08-19T08:26:41;20.80;99.90
17831;DHT22;9040;51.332;12.406;2022-08-19T08:29:11;20.70;99.90
17831;DHT22;9040;51.332;12.406;2022-08-19T08:31:39;20.80;99.90
17831;DHT22;9040;51.332;12.406;2022-08-19T08:34:07;20.80;99.90
17831;DHT22;9040;51.332;12.406;2022-08-19T08:36:36;20.80;99.90
17831;DHT22;9040;51.332;12.406;2022-08-19T08:39:06;20.80;99.90
17831;DHT22;9040;51.332;12.406;2022-08-19T08:41:39;20.90;99.90
17831;DHT22;9040;51.332;12.406;2022-08-19T08:44:14;20.90;99.90
17831;DHT22;9040;51.332;12.406;2022-08-19T08:46:46;20.90;99.90
17831;DHT22;9040;51.332;12.406;2022-08-19T08:49:24;20.80;99.90
17831;DHT22;9040;51.332;12.406;2022-08-19T08:51:59;20.80;99.90
17831;DHT22;9040;51.332;12.406;2022-08-19T08:54:33;20.90;99.90
17831;DHT22;9040;51.332;12.406;2022-08-19T08:57:02;20.90;99.90
17831;DHT22;9040;51.332;12.406;2022-08-19T08:59:35;20.80;99.90
17831;DHT22;9040;51.332;12.406;2022-08-19T09:02:03;20.80;99.90
17831;DHT22;9040;51.332;12.406;2022-08-19T09:04:31;20.90;99.90
17831;DHT22;9040;51.332;12.406;2022-08-19T09:07:12;20.90;99.90
17831;DHT22;9040;51.332;12.406;2022-08-19T09:09:43;20.80;99.90
17831;DHT22;9040;51.332;12.406;2022-08-19T09:12:17;20.80;99.90
17831;DHT22;9040;51.332;12.406;2022-08-19T09:14:50;20.90;99.90
17831;DHT22;9040;51.332;12.406;2022-08-19T09:17:21;20.80;99.90
17831;DHT22;9040;51.332;12.406;2022-08-19T09:19:58;20.70;99.90
17831;DHT22;9040;51.332;12.406;2022-08-19T09:22:28;20.70;99.90
17831;DHT22;9040;51.332;12.406;2022-08-19T09:24:55;20.70;99.90
17831;DHT22;9040;51.332;12.406;2022-08-19T09:27:24;20.70;99.90
17831;DHT22;9040;51.332;12.406;2022-08-19T09:29:53;20.70;99.90
17831;DHT22;9040;51.332;12.406;2022-08-19T09:32:21;20.70;99.90
17831;DHT22;9040;51.332;12.406;2022-08-19T09:34:48;20.80;99.90
17831;DHT22;9040;51.332;12.406;2022-08-19T09:37:15;20.60;99.90
17831;DHT22;9040;51.332;12.406;2022-08-19T09:39:42;20.50;99.90
17831;DHT22;9040;51.332;12.406;2022-08-19T09:42:09;20.60;99.90
17831;DHT22;9040;51.332;12.406;2022-08-19T09:44:39;20.60;99.90
17831;DHT22;9040;51.332;12.406;2022-08-19T09:47:08;20.60;99.90
17831;DHT22;9040;51.332;12.406;2022-08-19T09:49:36;20.70;99.90
17831;DHT22;9040;51.332;12.406;2022-08-19T09:52:05;20.80;99.90
17831;DHT22;9040;51.332;12.406;2022-08-19T09:54:33;20.90;99.90
17831;DHT22;9040;51.332;12.406;2022-08-19T09:57:00;20.90;99.90
17831;DHT22;9040;51.332;12.406;2022-08-19T09:59:28;20.90;99.90
17831;DHT22;9040;51.332;12.406;2022-08-19T10:01:55;20.90;99.90
17831;DHT22;9040;51.332;12.406;2022-08-19T10:04:24;20.90;99.90
17831;DHT22;9040;51.332;12.406;2022-08-19T10:07:11;21.00;99.90
17831;DHT22;9040;51.332;12.406;2022-08-19T10:09:38;21.20;99.90
17831;DHT22;9040;51.332;12.406;2022-08-19T10:12:07;21.20;99.90
17831;DHT22;9040;51.332;12.406;2022-08-19T10:14:34;21.30;99.90
17831;DHT22;9040;51.332;12.406;2022-08-19T10:17:02;21.30;99.90
17831;DHT22;9040;51.332;12.406;2022-08-19T10:19:30;21.40;99.90
17831;DHT22;9040;51.332;12.406;2022-08-19T10:22:03;21.40;99.90
17831;DHT22;9040;51.332;12.406;2022-08-19T10:24:29;21.60;99.90
17831;DHT22;9040;51.332;12.406;2022-08-19T10:26:57;21.60;99.90
17831;DHT22;9040;51.332;12.406;2022-08-19T10:29:24;21.60;99.90
17831;DHT22;9040;51.332;12.406;2022-08-19T10:31:53;21.50;99.90
17831;DHT22;9040;51.332;12.406;2022-08-19T10:34:21;21.50;99.90
17831;DHT22;9040;51.332;12.406;2022-08-19T10:36:50;21.50;99.90
17831;DHT22;9040;51.332;12.406;2022-08-19T10:39:16;21.50;99.90
17831;DHT22;9040;51.332;12.406;2022-08-19T10:41:43;21.50;99.90
17831;DHT22;9040;51.332;12.406;2022-08-19T10:44:12;21.60;99.90
17831;DHT22;9040;51.332;12.406;2022-08-19T10:46:42;21.50;99.90
17831;DHT22;9040;51.332;12.406;2022-08-19T10:49:13;21.50;99.90
17831;DHT22;9040;51.332;12.406;2022-08-19T10:51:40;21.50;99.90
17831;DHT22;9040;51.332;12.406;2022-08-19T10:54:26;21.50;99.90
17831;DHT22;9040;51.332;12.406;2022-08-19T10:57:14;21.30;99.90
17831;DHT22;9040;51.332;12.406;2022-08-19T10:59:41;21.20;99.90
17831;DHT22;9040;51.332;12.406;2022-08-19T11:02:09;21.20;99.90
17831;DHT22;9040;51.332;12.406;2022-08-19T11:04:37;21.30;99.90
17831;DHT22;9040;51.332;12.406;2022-08-19T11:07:05;21.40;99.90
17831;DHT22;9040;51.332;12.406;2022-08-19T11:09:37;21.30;99.90
17831;DHT22;9040;51.332;12.406;2022-08-19T11:12:05;21.30;99.90
17831;DHT22;9040;51.332;12.406;2022-08-19T11:14:33;21.20;99.90
17831;DHT22;9040;51.332;12.406;2022-08-19T11:17:01;21.20;99.90
17831;DHT22;9040;51.332;12.406;2022-08-19T11:19:28;21.00;99.90
17831;DHT22;9040;51.332;12.406;2022-08-19T11:21:55;21.10;99.90
17831;DHT22;9040;51.332;12.406;2022-08-19T11:24:24;21.10;99.90
17831;DHT22;9040;51.332;12.406;2022-08-19T11:26:55;21.10;99.90
17831;DHT22;9040;51.332;12.406;2022-08-19T11:29:27;21.20;99.90
17831;DHT22;9040;51.332;12.406;2022-08-19T11:31:54;21.20;99.90
17831;DHT22;9040;51.332;12.406;2022-08-19T11:34:23;21.30;99.90
17831;DHT22;9040;51.332;12.406;2022-08-19T11:36:51;21.30;99.90
17831;DHT22;9040;51.332;12.406;2022-08-19T11:39:20;21.30;99.90
17831;DHT22;9040;51.332;12.406;2022-08-19T11:41:47;21.40;99.90
17831;DHT22;9040;51.332;12.406;2022-08-19T11:44:15;21.30;99.90
17831;DHT22;9040;51.332;12.406;2022-08-19T11:46:44;21.40;99.90
17831;DHT22;9040;51.332;12.406;2022-08-19T11:49:13;21.40;99.90
17831;DHT22;9040;51.332;12.406;2022-08-19T11:51:40;21.40;99.90
17831;DHT22;9040;51.332;12.406;2022-08-19T11:54:09;21.60;99.90
17831;DHT22;9040;51.332;12.406;2022-08-19T11:56:36;21.70;99.90
17831;DHT22;9040;51.332;12.406;2022-08-19T11:59:04;21.80;99.90
17831;DHT22;9040;51.332;12.406;2022-08-19T12:01:32;22.00;99.90
17831;DHT22;9040;51.332;12.406;2022-08-19T12:04:00;22.10;99.90
17831;DHT22;9040;51.332;12.406;2022-08-19T12:06:29;22.20;99.90
17831;DHT22;9040;51.332;12.406;2022-08-19T12:08:58;22.30;99.90
17831;DHT22;9040;51.332;12.406;2022-08-19T12:11:26;22.40;99.90
17831;DHT22;9040;51.332;12.406;2022-08-19T12:13:53;22.60;99.90
17831;DHT22;9040;51.332;12.406;2022-08-19T12:16:24;22.80;99.90
17831;DHT22;9040;51.332;12.406;2022-08-19T12:18:54;23.00;99.90
17831;DHT22;9040;51.332;12.406;2022-08-19T12:21:24;23.10;99.90
17831;DHT22;9040;51.332;12.406;2022-08-19T12:23:56;23.30;99.90
17831;DHT22;9040;51.332;12.406;2022-08-19T12:26:24;23.40;99.90
17831;DHT22;9040;51.332;12.406;2022-08-19T12:28:51;23.40;99.90
17831;DHT22;9040;51.332;12.406;2022-08-19T12:31:18;23.20;99.90
17831;DHT22;9040;51.332;12.406;2022-08-19T12:33:46;23.40;99.90
17831;DHT22;9040;51.332;12.406;2022-08-19T12:36:15;23.70;99.90
17831;DHT22;9040;51.332;12.406;2022-08-19T12:38:43;23.80;99.90
17831;DHT22;9040;51.332;12.406;2022-08-19T12:41:13;23.70;99.90
17831;DHT22;9040;51.332;12.406;2022-08-19T12:43:40;23.80;99.90
17831;DHT22;9040;51.332;12.406;2022-08-19T12:46:08;23.90;99.90
17831;DHT22;9040;51.332;12.406;2022-08-19T12:48:35;24.00;99.90
17831;DHT22;9040;51.332;12.406;2022-08-19T12:51:07;24.20;99.90
17831;DHT22;9040;51.332;12.406;2022-08-19T12:53:36;24.60;99.90
17831;DHT22;9040;51.332;12.406;2022-08-19T12:56:03;24.40;99.90
17831;DHT22;9040;51.332;12.406;2022-08-19T12:58:30;24.40;99.90
17831;DHT22;9040;51.332;12.406;2022-08-19T13:00:57;24.30;99.90
17831;DHT22;9040;51.332;12.406;2022-08-19T13:03:24;24.20;99.90
17831;DHT22;9040;51.332;12.406;2022-08-19T13:05:55;24.10;99.90
17831;DHT22;9040;51.332;12.406;2022-08-19T13:08:22;24.10;99.90
17831;DHT22;9040;51.332;12.406;2022-08-19T13:10:50;24.30;99.90
17831;DHT22;9040;51.332;12.406;2022-08-19T13:13:17;24.50;99.90
17831;DHT22;9040;51.332;12.406;2022-08-19T13:15:44;24.40;99.90
17831;DHT22;9040;51.332;12.406;2022-08-19T13:18:11;24.30;99.90
17831;DHT22;9040;51.332;12.406;2022-08-19T13:20:40;24.00;99.90
17831;DHT22;9040;51.332;12.406;2022-08-19T13:23:07;23.80;99.90
17831;DHT22;9040;51.332;12.406;2022-08-19T13:25:34;23.80;99.90
17831;DHT22;9040;51.332;12.406;2022-08-19T13:28:03;23.80;99.90
17831;DHT22;9040;51.332;12.406;2022-08-19T13:30:32;23.60;99.90
17831;DHT22;9040;51.332;12.406;2022-08-19T13:33:17;23.50;99.90
17831;DHT22;9040;51.332;12.406;2022-08-19T13:35:47;23.30;99.90
17831;DHT22;9040;51.332;12.406;2022-08-19T13:38:17;23.30;99.90
17831;DHT22;9040;51.332;12.406;2022-08-19T13:40:45;23.20;99.90
17831;DHT22;9040;51.332;12.406;2022-08-19T13:43:14;23.10;99.90
17831;DHT22;9040;51.332;12.406;2022-08-19T13:45:41;23.00;99.90
17831;DHT22;9040;51.332;12.406;2022-08-19T13:48:08;22.90;99.90
17831;DHT22;9040;51.332;12.406;2022-08-19T13:50:38;22.90;99.90
17831;DHT22;9040;51.332;12.406;2022-08-19T13:53:07;22.80;99.90
17831;DHT22;9040;51.332;12.406;2022-08-19T13:55:35;22.80;99.90
17831;DHT22;9040;51.332;12.406;2022-08-19T13:58:02;22.80;99.90
17831;DHT22;9040;51.332;12.406;2022-08-19T14:00:33;22.80;99.90
17831;DHT22;9040;51.332;12.406;2022-08-19T14:03:00;22.80;99.90
17831;DHT22;9040;51.332;12.406;2022-08-19T14:05:29;22.70;99.90
17831;DHT22;9040;51.332;12.406;2022-08-19T14:07:56;22.70;99.90
17831;DHT22;9040;51.332;12.406;2022-08-19T14:10:23;22.70;99.90
17831;DHT22;9040;51.332;12.406;2022-08-19T14:12:52;22.70;99.90
17831;DHT22;9040;51.332;12.406;2022-08-19T14:15:21;22.80;99.90
17831;DHT22;9040;51.332;12.406;2022-08-19T14:17:51;22.90;99.90
17831;DHT22;9040;51.332;12.406;2022-08-19T14:20:18;22.90;99.90
17831;DHT22;9040;51.332;12.406;2022-08-19T14:22:46;23.00;99.90
17831;DHT22;9040;51.332;12.406;2022-08-19T14:25:16;23.00;99.90
17831;DHT22;9040;51.332;12.406;2022-08-19T14:27:43;23.00;99.90
17831;DHT22;9040;51.332;12.406;2022-08-19T14:30:13;23.00;99.90
17831;DHT22;9040;51.332;12.406;2022-08-19T14:32:41;23.00;99.90
17831;DHT22;9040;51.332;12.406;2022-08-19T14:35:13;22.90;99.90
17831;DHT22;9040;51.332;12.406;2022-08-19T14:37:41;22.90;99.90
17831;DHT22;9040;51.332;12.406;2022-08-19T14:40:08;23.00;99.90
17831;DHT22;9040;51.332;12.406;2022-08-19T14:42:36;23.00;99.90
17831;DHT22;9040;51.332;12.406;2022-08-19T14:45:04;22.90;99.90
17831;DHT22;9040;51.332;12.406;2022-08-19T14:47:31;22.90;99.90
17831;DHT22;9040;51.332;12.406;2022-08-19T14:49:58;22.90;99.90
17831;DHT22;9040;51.332;12.406;2022-08-19T14:52:27;22.80;99.90
17831;DHT22;9040;51.332;12.406;2022-08-19T14:54:54;22.80;99.90
17831;DHT22;9040;51.332;12.406;2022-08-19T14:57:21;22.70;99.90
17831;DHT22;9040;51.332;12.406;2022-08-19T14:59:48;22.80;99.90
17831;DHT22;9040;51.332;12.406;2022-08-19T15:02:16;22.90;99.90
17831;DHT22;9040;51.332;12.406;2022-08-19T15:04:43;22.90;99.90
17831;DHT22;9040;51.332;12.406;2022-08-19T15:07:10;22.90;99.90
17831;DHT22;9040;51.332;12.406;2022-08-19T15:09:38;22.90;99.90
17831;DHT22;9040;51.332;12.406;2022-08-19T15:12:06;22.90;99.90
17831;DHT22;9040;51.332;12.406;2022-08-19T15:14:36;22.80;99.90
17831;DHT22;9040;51.332;12.406;2022-08-19T15:17:04;22.80;99.90
17831;DHT22;9040;51.332;12.406;2022-08-19T15:19:32;22.70;99.90
17831;DHT22;9040;51.332;12.406;2022-08-19T15:22:01;22.70;99.90
17831;DHT22;9040;51.332;12.406;2022-08-19T15:24:28;22.70;99.90
17831;DHT22;9040;51.332;12.406;2022-08-19T15:26:57;22.60;99.90
17831;DHT22;9040;51.332;12.406;2022-08-19T15:29:24;22.60;99.90
17831;DHT22;9040;51.332;12.406;2022-08-19T15:31:52;22.50;99.90
17831;DHT22;9040;51.332;12.406;2022-08-19T15:34:22;22.50;99.90
17831;DHT22;9040;51.332;12.406;2022-08-19T15:36:49;22.50;99.90
17831;DHT22;9040;51.332;12.406;2022-08-19T15:39:16;22.50;99.90